createdAt,value
2022-08-26T00:04:18.179Z,24
2022-08-26T00:10:03.831Z,24
2022-08-26T00:15:52.182Z,24
2022-08-26T00:22:05.179Z,24
2022-08-26T00:27:42.002Z,24
2022-08-26T00:33:36.648Z,24
2022-08-26T00:38:41.511Z,24
2022-08-26T00:44:04.064Z,24
2022-08-26T00:50:03.258Z,24.1
2022-08-26T00:55:55.871Z,24
2022-08-26T01:01:39.150Z,24
2022-08-26T01:07:20.087Z,24
2022-08-26T01:12:48.131Z,24.1
2022-08-26T01:18:40.458Z,24
2022-08-26T01:24:31.943Z,24
2022-08-26T01:30:19.958Z,24.1
2022-08-26T01:36:12.622Z,24.1
2022-08-26T01:42:10.537Z,24.1
2022-08-26T01:47:57.704Z,24.1
2022-08-26T01:54:15.996Z,24.1
2022-08-26T02:00:13.093Z,24.1
2022-08-26T02:05:59.730Z,24.1
2022-08-26T02:11:55.490Z,24.1
2022-08-26T02:17:37.723Z,24.1
2022-08-26T02:23:24.011Z,24
2022-08-26T02:29:00.336Z,24.1
2022-08-26T02:34:50.177Z,24.1
2022-08-26T02:40:31.749Z,24
2022-08-26T02:46:28.076Z,24.1
2022-08-26T02:52:18.490Z,24.1
2022-08-26T02:57:44.720Z,24
2022-08-26T03:03:40.693Z,24.1
2022-08-26T03:09:25.428Z,24.1
2022-08-26T03:15:15.979Z,24.1
2022-08-26T03:20:52.272Z,24.1
2022-08-26T03:26:32.579Z,24.1
2022-08-26T03:32:27.030Z,24.1
2022-08-26T03:38:12.617Z,24
2022-08-26T03:43:36.902Z,24
2022-08-26T03:49:21.150Z,23.9
2022-08-26T03:55:17.412Z,23.9
2022-08-26T04:00:58.230Z,23.9
2022-08-26T04:06:47.486Z,23.9
2022-08-26T04:12:31.590Z,23.9
2022-08-26T04:18:02.027Z,23.9
2022-08-26T04:23:33.707Z,23.9
2022-08-26T04:29:29.935Z,23.9
2022-08-26T04:35:31.668Z,23.9
2022-08-26T04:41:03.212Z,23.8
2022-08-26T04:46:50.669Z,23.8
2022-08-26T04:52:41.926Z,23.7
2022-08-26T04:58:43.822Z,23.7
2022-08-26T05:04:28.114Z,23.6
2022-08-26T05:09:52.631Z,23.6
2022-08-26T05:15:42.565Z,23.6
2022-08-26T05:21:35.075Z,23.6
2022-08-26T05:27:18.353Z,23.6
2022-08-26T05:32:45.691Z,23.6
2022-08-26T05:38:39.360Z,23.6
2022-08-26T05:44:11.095Z,23.6
2022-08-26T05:50:07.958Z,23.6
2022-08-26T05:55:55.541Z,23.6
2022-08-26T06:01:52.388Z,23.6
2022-08-26T06:07:39.454Z,23.7
2022-08-26T06:14:05.659Z,23.7
2022-08-26T06:19:51.109Z,23.6
2022-08-26T06:25:43.550Z,23.7
2022-08-26T06:31:38.315Z,23.7
2022-08-26T06:37:27.775Z,23.7
2022-08-26T06:43:12.909Z,23.7
2022-08-26T06:49:00.469Z,23.8
2022-08-26T06:54:42.154Z,23.7
2022-08-26T07:00:31.146Z,23.7
2022-08-26T07:06:33.083Z,23.7
2022-08-26T07:12:23.652Z,23.8
2022-08-26T07:18:27.814Z,23.8
2022-08-26T07:24:24.028Z,23.8
2022-08-26T07:30:08.185Z,23.8
2022-08-26T07:36:00.551Z,23.8
2022-08-26T07:41:59.303Z,23.8
2022-08-26T07:47:59.506Z,23.8
2022-08-26T07:53:53.345Z,23.8
2022-08-26T07:59:49.241Z,23.8
2022-08-26T08:05:38.133Z,23.8
2022-08-26T08:11:57.394Z,23.8
2022-08-26T08:17:45.897Z,23.8
2022-08-26T08:23:58.774Z,23.9
2022-08-26T08:29:49.246Z,23.8
2022-08-26T08:36:03.932Z,23.9
2022-08-26T08:41:47.694Z,23.9
2022-08-26T08:47:33.645Z,23.9
2022-08-26T08:53:22.238Z,23.9
2022-08-26T08:59:22.344Z,23.9
2022-08-26T09:05:07.842Z,23.9
2022-08-26T09:10:59.033Z,23.9
2022-08-26T09:16:38.838Z,23.9
2022-08-26T09:22:27.546Z,23.9
2022-08-26T09:28:29.827Z,23.9
2022-08-26T09:34:22.471Z,23.9
2022-08-26T09:40:12.445Z,23.9
2022-08-26T09:46:16.143Z,23.9
2022-08-26T09:51:55.475Z,23.9
2022-08-26T09:57:51.448Z,23.9
2022-08-26T10:03:39.233Z,23.9
2022-08-26T10:09:28.247Z,23.9
2022-08-26T10:15:12.183Z,23.9
2022-08-26T10:21:34.297Z,23.9
2022-08-26T10:27:24.477Z,23.9
2022-08-26T10:33:31.406Z,23.9
2022-08-26T10:39:48.150Z,24
2022-08-26T10:45:41.651Z,23.9
2022-08-26T10:51:27.658Z,23.9
2022-08-26T10:57:27.766Z,24
2022-08-26T11:03:39.198Z,24
2022-08-26T11:09:33.546Z,24
2022-08-26T11:15:44.313Z,24
2022-08-26T11:21:45.966Z,24
2022-08-26T11:28:06.124Z,24
2022-08-26T11:34:02.821Z,24
2022-08-26T11:40:02.800Z,24
2022-08-26T11:45:48.814Z,24
2022-08-26T11:51:31.918Z,24
2022-08-26T11:57:28.390Z,24
2022-08-26T12:03:09.955Z,24
2022-08-26T12:08:33.971Z,24
2022-08-26T12:14:02.166Z,24
2022-08-26T12:19:53.857Z,24
2022-08-26T12:25:38.456Z,24
2022-08-26T12:31:51.961Z,24
2022-08-26T12:38:00.758Z,24
2022-08-26T12:43:26.202Z,24
2022-08-26T12:49:06.348Z,24
2022-08-26T12:54:27.557Z,24
2022-08-26T13:00:06.673Z,24
2022-08-26T13:05:52.900Z,24
2022-08-26T13:11:37.636Z,24.1
2022-08-26T13:17:12.346Z,24.1
2022-08-26T13:22:35.124Z,24.1
2022-08-26T13:28:21.718Z,24.1
2022-08-26T13:33:58.946Z,24.1
2022-08-26T13:39:42.554Z,24.1
2022-08-26T13:45:35.799Z,24.1
2022-08-26T13:51:14.072Z,24.1
2022-08-26T13:57:01.785Z,24.1
2022-08-26T14:02:43.981Z,24.1
2022-08-26T14:08:11.341Z,24.1
2022-08-26T14:13:51.456Z,24.1
2022-08-26T14:19:58.405Z,24.1
2022-08-26T14:25:59.039Z,24.1
2022-08-26T14:31:35.803Z,24.1
2022-08-26T14:37:15.347Z,24.1
2022-08-26T14:43:19.923Z,24.1
2022-08-26T14:48:57.309Z,24.1
2022-08-26T14:54:37.850Z,24.1
2022-08-26T15:00:23.677Z,24.1
2022-08-26T15:06:11.370Z,24.1
2022-08-26T15:11:49.573Z,24.1
2022-08-26T15:17:23.808Z,24.1
2022-08-26T15:23:03.869Z,24.1
2022-08-26T15:28:28.051Z,24.1
2022-08-26T15:34:13.214Z,24.1
2022-08-26T15:39:57.564Z,24.1
2022-08-26T15:45:59.927Z,24.1
2022-08-26T15:52:05.377Z,24.1
2022-08-26T15:57:54.220Z,24.1
2022-08-26T16:03:40.823Z,24.1
2022-08-26T16:09:20.333Z,24.2
2022-08-26T16:15:19.218Z,24.1
2022-08-26T16:21:19.205Z,24.1
2022-08-26T16:27:00.951Z,24.1
2022-08-26T16:32:47.350Z,24.1
2022-08-26T16:38:32.999Z,24.1
2022-08-26T16:44:22.202Z,24.1
2022-08-26T16:50:00.513Z,24.1
2022-08-26T16:55:40.858Z,24.1
2022-08-26T17:01:24.199Z,24.1
2022-08-26T17:07:03.176Z,24.1
2022-08-26T17:12:43.889Z,24.2
2022-08-26T17:18:39.509Z,24.1
2022-08-26T17:24:14.799Z,24.1
2022-08-26T17:29:57.670Z,24.1
2022-08-26T17:35:13.759Z,24.2
2022-08-26T17:40:51.979Z,24.1
2022-08-26T17:46:23.497Z,24.1
2022-08-26T17:51:46.160Z,24.1
2022-08-26T17:56:53.126Z,24.1
2022-08-26T18:02:51.213Z,24.1
2022-08-26T18:08:34.445Z,24.1
2022-08-26T18:14:03.946Z,24.1
2022-08-26T18:19:13.504Z,24.1
2022-08-26T18:25:15.284Z,24.1
2022-08-26T18:30:52.885Z,24.1
2022-08-26T18:36:33.321Z,24.1
2022-08-26T18:41:48.002Z,24.1
2022-08-26T18:47:29.028Z,24.1
2022-08-26T18:53:09.473Z,24.1
2022-08-26T18:58:47.997Z,24.1
2022-08-26T19:04:31.825Z,24.1
2022-08-26T19:09:59.560Z,24
2022-08-26T19:15:54.947Z,24
2022-08-26T19:21:37.273Z,24
2022-08-26T19:27:32.156Z,24
2022-08-26T19:33:15.907Z,24
2022-08-26T19:38:44.246Z,23.9
2022-08-26T19:44:08.719Z,23.9
2022-08-26T19:49:59.845Z,23.9
2022-08-26T19:55:39.423Z,23.9
2022-08-26T20:01:05.336Z,23.9
2022-08-26T20:06:53.749Z,23.9
2022-08-26T20:12:56.582Z,23.8
2022-08-26T20:18:39.806Z,23.8
2022-08-26T20:24:44.704Z,23.8
2022-08-26T20:30:14.425Z,23.7
2022-08-26T20:35:41.847Z,23.7
2022-08-26T20:41:12.663Z,23.6
2022-08-26T20:46:51.451Z,23.6
2022-08-26T20:52:22.510Z,23.6
2022-08-26T20:58:03.959Z,23.6
2022-08-26T21:03:38.274Z,23.5
2022-08-26T21:09:23.349Z,23.4
2022-08-26T21:15:10.503Z,23.4
2022-08-26T21:20:47.432Z,23.3
2022-08-26T21:26:32.818Z,23.3
2022-08-26T21:32:02.966Z,23.3
2022-08-26T21:37:42.940Z,23.2
2022-08-26T21:43:34.768Z,23.2
2022-08-26T21:49:13.321Z,23.1
2022-08-26T21:54:51.310Z,23.1
2022-08-26T22:00:32.121Z,23.1
2022-08-26T22:06:16.142Z,23.1
2022-08-26T22:11:24.251Z,23
2022-08-26T22:16:30.587Z,22.9
2022-08-26T22:22:12.721Z,22.9
2022-08-26T22:27:48.969Z,22.9
2022-08-26T22:33:35.293Z,22.9
2022-08-26T22:39:29.448Z,22.9
2022-08-26T22:45:13.268Z,22.9
2022-08-26T22:50:38.273Z,22.9
2022-08-26T22:56:21.105Z,22.9
2022-08-26T23:02:12.844Z,22.9
2022-08-26T23:07:38.265Z,22.9
2022-08-26T23:13:15.163Z,22.9
2022-08-26T23:18:33.302Z,22.9
2022-08-26T23:23:57.705Z,22.9
2022-08-26T23:29:10.424Z,22.9
2022-08-26T23:34:33.482Z,22.9
2022-08-26T23:40:17.881Z,22.9
2022-08-26T23:45:59.692Z,22.9
2022-08-26T23:51:22.909Z,23
2022-08-26T23:56:44.087Z,23
